createdAt,value
2018-08-06T00:01:28.739Z,60.42
2018-08-06T00:02:28.758Z,60.42
2018-08-06T00:04:21.692Z,60.04
2018-08-06T00:05:21.695Z,60.33
2018-08-06T00:07:14.637Z,60.52
2018-08-06T00:08:14.637Z,60.52
2018-08-06T00:10:07.553Z,61.29
2018-08-06T00:11:07.569Z,61.29
2018-08-06T00:13:00.505Z,61.00
2018-08-06T00:14:00.505Z,61.36
2018-08-06T00:15:53.419Z,61.65
2018-08-06T00:16:53.440Z,61.26
2018-08-06T00:18:46.376Z,62.13
2018-08-06T00:19:46.382Z,62.03
2018-08-06T00:21:39.290Z,61.65
2018-08-06T00:22:39.317Z,62.41
2018-08-06T00:24:32.246Z,62.13
2018-08-06T00:25:32.265Z,61.94
2018-08-06T00:27:25.192Z,62.03
2018-08-06T00:28:25.186Z,62.13
2018-08-06T00:30:18.106Z,62.23
2018-08-06T00:31:18.119Z,62.13
2018-08-06T00:33:11.074Z,62.32
2018-08-06T00:34:11.080Z,62.32
2018-08-06T00:36:03.983Z,63.18
2018-08-06T00:37:04.009Z,62.96
2018-08-06T00:38:56.943Z,62.87
2018-08-06T00:39:56.941Z,62.87
2018-08-06T00:41:49.853Z,62.96
2018-08-06T00:42:49.877Z,63.06
2018-08-06T00:44:42.809Z,63.15
2018-08-06T00:45:42.811Z,63.35
2018-08-06T00:47:35.746Z,63.15
2018-08-06T00:48:35.744Z,63.54
2018-08-06T00:50:28.654Z,63.73
2018-08-06T00:51:28.675Z,63.54
2018-08-06T00:53:21.608Z,64.02
2018-08-06T00:54:21.610Z,64.12
2018-08-06T00:56:14.522Z,64.60
2018-08-06T00:57:14.543Z,64.40
2018-08-06T00:59:07.474Z,64.12
2018-08-06T01:00:07.476Z,64.31
2018-08-06T01:02:00.392Z,64.56
2018-08-06T01:03:00.409Z,64.37
2018-08-06T01:04:53.341Z,65.08
2018-08-06T01:05:53.345Z,64.76
2018-08-06T01:07:46.265Z,64.50
2018-08-06T01:08:46.280Z,64.22
2018-08-06T01:10:39.245Z,64.40
2018-08-06T01:11:39.224Z,64.47
2018-08-06T01:13:32.155Z,64.40
2018-08-06T01:14:32.155Z,64.22
2018-08-06T01:16:25.061Z,64.28
2018-08-06T01:17:25.080Z,64.50
2018-08-06T01:19:18.015Z,64.31
2018-08-06T01:20:18.013Z,64.47
2018-08-06T01:22:10.945Z,64.76
2018-08-06T01:23:10.963Z,64.76
2018-08-06T01:25:03.882Z,64.31
2018-08-06T01:26:03.883Z,64.28
2018-08-06T01:27:56.790Z,64.47
2018-08-06T01:28:56.818Z,64.66
2018-08-06T01:30:49.744Z,64.56
2018-08-06T01:31:49.745Z,65.43
2018-08-06T01:33:42.678Z,65.05
2018-08-06T01:34:42.680Z,65.05
2018-08-06T01:36:35.600Z,65.72
2018-08-06T01:37:35.619Z,65.49
2018-08-06T01:39:28.549Z,65.78
2018-08-06T01:40:28.560Z,65.97
2018-08-06T01:42:21.465Z,65.88
2018-08-06T01:43:21.493Z,65.88
2018-08-06T01:45:14.450Z,66.74
2018-08-06T01:46:14.420Z,66.74
2018-08-06T01:48:07.351Z,66.84
2018-08-06T01:49:07.374Z,67.13
2018-08-06T01:51:00.305Z,67.32
2018-08-06T01:52:00.309Z,67.41
2018-08-06T01:53:53.237Z,67.86
2018-08-06T01:54:53.242Z,68.44
2018-08-06T01:56:46.149Z,68.24
2018-08-06T01:57:46.173Z,68.34
2018-08-06T01:59:39.101Z,67.99
2018-08-06T02:00:39.102Z,67.61
2018-08-06T02:02:32.014Z,67.90
2018-08-06T02:03:32.040Z,67.70
2018-08-06T02:05:24.962Z,67.80
2018-08-06T02:06:24.966Z,67.80
2018-08-06T02:08:17.886Z,67.90
2018-08-06T02:09:17.899Z,68.15
2018-08-06T02:11:10.835Z,67.76
2018-08-06T02:12:10.842Z,67.67
2018-08-06T02:14:03.764Z,68.05
2018-08-06T02:15:03.772Z,68.15
2018-08-06T02:16:56.676Z,67.57
2018-08-06T02:17:56.699Z,68.05
2018-08-06T02:19:49.630Z,68.63
2018-08-06T02:20:49.634Z,68.63
2018-08-06T02:22:42.545Z,68.73
2018-08-06T02:23:42.592Z,68.24
2018-08-06T02:25:35.496Z,68.34
2018-08-06T02:26:35.495Z,68.53
2018-08-06T02:28:28.406Z,69.30
2018-08-06T02:29:28.427Z,69.68
2018-08-06T02:31:21.358Z,69.30
2018-08-06T02:32:21.358Z,69.40
2018-08-06T02:34:14.348Z,69.40
2018-08-06T02:35:14.325Z,69.20
2018-08-06T02:37:07.204Z,69.84
2018-08-06T02:38:07.219Z,70.07
2018-08-06T02:40:00.159Z,69.84
2018-08-06T02:41:00.164Z,69.74
2018-08-06T02:42:53.067Z,69.78
2018-08-06T02:43:53.089Z,69.74
2018-08-06T02:45:46.018Z,69.68
2018-08-06T02:46:46.064Z,69.59
2018-08-06T02:48:38.930Z,69.40
2018-08-06T02:49:38.950Z,69.30
2018-08-06T02:51:31.880Z,69.40
2018-08-06T02:52:31.882Z,69.49
2018-08-06T02:54:24.811Z,69.30
2018-08-06T02:55:24.818Z,69.26
2018-08-06T02:57:17.722Z,69.74
2018-08-06T02:58:17.747Z,69.56
2018-08-06T03:00:10.757Z,69.56
2018-08-06T03:01:10.688Z,69.56
2018-08-06T03:03:03.584Z,69.74
2018-08-06T03:04:03.603Z,69.65
2018-08-06T03:05:56.542Z,70.13
2018-08-06T03:06:56.535Z,69.56
2018-08-06T03:08:49.447Z,70.23
2018-08-06T03:09:49.491Z,70.32
2018-08-06T03:11:42.399Z,70.03
2018-08-06T03:12:42.399Z,70.51
2018-08-06T03:14:35.328Z,70.76
2018-08-06T03:15:35.330Z,70.42
2018-08-06T03:17:28.242Z,70.48
2018-08-06T03:18:28.265Z,70.57
2018-08-06T03:20:21.190Z,70.57
2018-08-06T03:21:21.192Z,70.48
2018-08-06T03:23:14.122Z,70.86
2018-08-06T03:24:14.122Z,70.67
2018-08-06T03:26:07.065Z,71.15
2018-08-06T03:27:07.052Z,71.15
2018-08-06T03:28:59.970Z,71.44
2018-08-06T03:29:59.984Z,70.96
2018-08-06T03:31:52.923Z,71.15
2018-08-06T03:32:52.913Z,71.25
2018-08-06T03:34:45.846Z,71.44
2018-08-06T03:35:45.843Z,71.15
2018-08-06T03:37:38.751Z,71.44
2018-08-06T03:38:38.773Z,71.44
2018-08-06T03:40:31.705Z,71.44
2018-08-06T03:41:31.703Z,71.53
2018-08-06T03:43:24.614Z,71.88
2018-08-06T03:44:24.634Z,71.59
2018-08-06T03:46:17.563Z,71.50
2018-08-06T03:47:17.569Z,71.59
2018-08-06T03:49:10.470Z,71.88
2018-08-06T03:50:10.492Z,71.50
2018-08-06T03:52:03.421Z,71.69
2018-08-06T03:53:03.434Z,71.40
2018-08-06T03:54:56.352Z,71.69
2018-08-06T03:55:56.355Z,72.17
2018-08-06T03:57:49.265Z,72.07
2018-08-06T03:58:49.294Z,72.36
2018-08-06T04:00:42.219Z,72.07
2018-08-06T04:01:42.216Z,72.36
2018-08-06T04:03:35.130Z,72.74
2018-08-06T04:04:35.158Z,73.22
2018-08-06T04:06:28.083Z,73.07
2018-08-06T04:07:28.085Z,73.51
2018-08-06T04:09:20.993Z,73.07
2018-08-06T04:10:21.014Z,73.07
2018-08-06T04:12:13.942Z,73.32
2018-08-06T04:13:13.944Z,73.03
2018-08-06T04:15:06.870Z,73.22
2018-08-06T04:16:06.873Z,73.32
2018-08-06T04:17:59.783Z,73.13
2018-08-06T04:18:59.803Z,73.32
2018-08-06T04:20:52.733Z,73.32
2018-08-06T04:21:52.733Z,73.32
2018-08-06T04:23:45.638Z,72.97
2018-08-06T04:24:45.663Z,72.59
2018-08-06T04:26:38.586Z,72.43
2018-08-06T04:27:38.587Z,71.86
2018-08-06T04:29:31.498Z,71.09
2018-08-06T04:30:31.518Z,70.80
2018-08-06T04:32:24.459Z,70.17
2018-08-06T04:33:24.451Z,69.34
2018-08-06T04:35:17.384Z,66.77
2018-08-06T04:36:17.386Z,65.84
2018-08-06T04:38:10.371Z,64.22
2018-08-06T04:39:10.393Z,64.69
2018-08-06T04:41:03.331Z,64.12
2018-08-06T04:42:03.327Z,64.60
2018-08-06T04:43:56.239Z,64.02
2018-08-06T04:44:56.262Z,63.57
2018-08-06T04:46:49.205Z,61.97
2018-08-06T04:47:49.197Z,60.55
2018-08-06T04:49:42.118Z,59.91
2018-08-06T04:50:42.140Z,59.33
2018-08-06T04:52:35.071Z,57.92
2018-08-06T04:53:35.079Z,56.88
2018-08-06T04:55:28.011Z,57.27
2018-08-06T04:56:28.020Z,57.10
2018-08-06T04:58:20.928Z,55.10
2018-08-06T04:59:20.958Z,54.46
2018-08-06T05:01:13.888Z,53.20
2018-08-06T05:02:13.897Z,53.75
2018-08-06T05:04:06.810Z,53.78
2018-08-06T05:05:06.838Z,53.39
2018-08-06T05:06:59.817Z,52.55
2018-08-06T05:07:59.781Z,52.45
2018-08-06T05:09:52.721Z,52.33
2018-08-06T05:10:52.744Z,52.43
2018-08-06T05:12:45.666Z,52.91
2018-08-06T05:13:45.714Z,53.27
2018-08-06T05:15:38.618Z,53.63
2018-08-06T05:16:38.617Z,54.60
2018-08-06T05:18:31.533Z,55.82
2018-08-06T05:19:31.622Z,56.40
2018-08-06T05:21:24.487Z,56.66
2018-08-06T05:22:24.493Z,57.14
2018-08-06T05:24:17.411Z,57.62
2018-08-06T05:25:17.438Z,57.72
2018-08-06T05:27:10.370Z,58.69
2018-08-06T05:28:10.381Z,58.59
2018-08-06T05:30:03.293Z,58.95
2018-08-06T05:31:03.320Z,59.17
2018-08-06T05:32:56.249Z,58.75
2018-08-06T05:33:56.254Z,59.14
2018-08-06T05:35:49.191Z,59.23
2018-08-06T05:36:49.191Z,59.14
2018-08-06T05:38:42.103Z,59.14
2018-08-06T05:39:42.126Z,59.52
2018-08-06T05:41:35.062Z,59.72
2018-08-06T05:42:35.068Z,60.20
2018-08-06T05:44:27.988Z,59.52
2018-08-06T05:45:28.001Z,60.00
2018-08-06T05:47:20.948Z,59.07
2018-08-06T05:48:20.993Z,59.27
2018-08-06T05:50:13.869Z,59.27
2018-08-06T05:51:13.890Z,58.59
2018-08-06T05:53:06.881Z,58.97
2018-08-06T05:54:06.841Z,58.88
2018-08-06T05:55:59.753Z,59.45
2018-08-06T05:56:59.772Z,58.59
2018-08-06T05:58:52.674Z,58.40
2018-08-06T05:59:52.800Z,58.40
2018-08-06T06:01:45.698Z,58.30
2018-08-06T06:02:45.639Z,58.69
2018-08-06T06:04:38.553Z,58.88
2018-08-06T06:05:38.622Z,58.40
2018-08-06T06:07:31.512Z,57.97
2018-08-06T06:08:31.522Z,57.01
2018-08-06T06:10:24.442Z,55.68
2018-08-06T06:11:24.467Z,55.35
2018-08-06T06:13:17.413Z,53.19
2018-08-06T06:14:17.421Z,52.14
2018-08-06T06:16:10.368Z,49.32
2018-08-06T06:17:10.368Z,47.09
2018-08-06T06:19:03.322Z,45.56
2018-08-06T06:20:03.313Z,45.68
2018-08-06T06:21:56.252Z,44.24
2018-08-06T06:22:56.261Z,43.98
2018-08-06T06:24:49.185Z,42.83
2018-08-06T06:25:49.217Z,41.80
2018-08-06T06:27:42.163Z,40.44
2018-08-06T06:28:42.244Z,40.54
2018-08-06T06:30:35.096Z,40.37
2018-08-06T06:31:35.120Z,39.41
2018-08-06T06:33:28.066Z,38.15
2018-08-06T06:34:28.122Z,38.65
2018-08-06T06:36:21.015Z,38.64
2018-08-06T06:37:21.045Z,38.07
2018-08-06T06:39:13.989Z,37.58
2018-08-06T06:40:14.000Z,37.41
2018-08-06T06:42:06.953Z,37.12
2018-08-06T06:43:06.963Z,37.12
2018-08-06T06:44:59.900Z,36.45
2018-08-06T06:45:59.932Z,36.14
2018-08-06T06:47:52.885Z,36.72
2018-08-06T06:48:52.909Z,36.45
2018-08-06T06:50:45.820Z,35.96
2018-08-06T06:51:45.850Z,35.94
2018-08-06T06:53:38.806Z,36.33
2018-08-06T06:54:38.815Z,36.59
2018-08-06T06:56:31.744Z,37.58
2018-08-06T06:57:31.799Z,37.18
2018-08-06T06:59:24.726Z,37.85
2018-08-06T07:00:24.738Z,38.54
2018-08-06T07:02:17.693Z,37.27
2018-08-06T07:03:17.702Z,37.56
2018-08-06T07:05:10.632Z,38.60
2018-08-06T07:06:10.668Z,38.91
2018-08-06T07:08:03.623Z,38.24
2018-08-06T07:09:03.628Z,38.54
2018-08-06T07:10:56.558Z,38.15
2018-08-06T07:11:56.592Z,38.17
2018-08-06T07:13:49.673Z,37.46
2018-08-06T07:14:49.566Z,37.56
2018-08-06T07:16:42.505Z,37.27
2018-08-06T07:17:42.543Z,37.37
2018-08-06T07:19:35.492Z,37.84
2018-08-06T07:20:35.516Z,38.01
2018-08-06T07:22:28.453Z,38.87
2018-08-06T07:23:28.456Z,39.16
2018-08-06T07:25:21.386Z,39.62
2018-08-06T07:26:21.415Z,40.50
2018-08-06T07:28:14.370Z,40.67
2018-08-06T07:29:14.381Z,42.03
2018-08-06T07:31:07.305Z,41.64
2018-08-06T07:32:07.334Z,41.84
2018-08-06T07:34:00.286Z,40.58
2018-08-06T07:35:00.290Z,41.45
2018-08-06T07:36:53.217Z,41.26
2018-08-06T07:37:53.243Z,40.87
2018-08-06T07:39:46.183Z,41.16
2018-08-06T07:40:46.190Z,41.84
2018-08-06T07:42:39.132Z,42.33
2018-08-06T07:43:39.143Z,42.25
2018-08-06T07:45:32.061Z,40.41
2018-08-06T07:46:32.090Z,39.53
2018-08-06T07:48:25.032Z,40.23
2018-08-06T07:49:25.058Z,39.65
2018-08-06T07:51:17.966Z,39.55
2018-08-06T07:52:17.992Z,39.06
2018-08-06T07:54:10.935Z,39.36
2018-08-06T07:55:10.942Z,39.06
2018-08-06T07:57:03.876Z,39.75
2018-08-06T07:58:03.896Z,38.77
2018-08-06T07:59:56.842Z,38.37
2018-08-06T08:00:56.850Z,38.95
2018-08-06T08:02:49.796Z,39.72
2018-08-06T08:03:49.802Z,40.69
2018-08-06T08:05:42.723Z,40.21
2018-08-06T08:06:42.771Z,40.33
2018-08-06T08:08:35.693Z,40.62
2018-08-06T08:09:35.702Z,39.76
2018-08-06T08:11:28.631Z,39.37
2018-08-06T08:12:28.658Z,38.40
2018-08-06T08:14:21.607Z,38.79
2018-08-06T08:15:21.612Z,38.32
2018-08-06T08:17:14.534Z,38.71
2018-08-06T08:18:14.562Z,38.42
2018-08-06T08:20:07.618Z,38.24
2018-08-06T08:21:07.514Z,37.95
2018-08-06T08:23:00.456Z,37.66
2018-08-06T08:24:00.465Z,37.46
2018-08-06T08:25:53.386Z,36.98
2018-08-06T08:26:53.419Z,36.98
2018-08-06T08:28:46.357Z,37.37
2018-08-06T08:29:46.365Z,36.87
2018-08-06T08:31:39.286Z,37.27
2018-08-06T08:32:39.315Z,36.49
2018-08-06T08:34:32.259Z,36.77
2018-08-06T08:35:32.268Z,36.96
2018-08-06T08:37:25.191Z,36.67
2018-08-06T08:38:25.221Z,37.26
2018-08-06T08:40:18.187Z,36.67
2018-08-06T08:41:18.174Z,36.96
2018-08-06T08:43:11.224Z,37.35
2018-08-06T08:44:11.129Z,37.84
2018-08-06T08:46:04.059Z,38.13
2018-08-06T08:47:04.087Z,37.26
2018-08-06T08:48:57.030Z,36.69
2018-08-06T08:49:57.038Z,35.91
2018-08-06T08:51:49.964Z,36.28
2018-08-06T08:52:49.991Z,36.36
2018-08-06T08:54:42.940Z,37.35
2018-08-06T08:55:42.943Z,37.54
2018-08-06T08:57:35.879Z,36.57
2018-08-06T08:58:35.985Z,35.89
2018-08-06T09:00:28.876Z,36.20
2018-08-06T09:01:28.857Z,36.10
2018-08-06T09:03:21.796Z,35.91
2018-08-06T09:04:21.805Z,35.61
2018-08-06T09:06:14.729Z,35.83
2018-08-06T09:07:14.838Z,34.56
2018-08-06T09:09:07.707Z,35.25
2018-08-06T09:10:07.711Z,35.61
2018-08-06T09:12:00.639Z,35.15
2018-08-06T09:13:00.665Z,35.93
2018-08-06T09:14:53.608Z,35.44
2018-08-06T09:15:53.640Z,35.42
2018-08-06T09:17:46.534Z,35.93
2018-08-06T09:18:46.566Z,35.34
2018-08-06T09:20:39.514Z,34.94
2018-08-06T09:21:39.519Z,35.42
2018-08-06T09:23:32.461Z,35.71
2018-08-06T09:24:32.471Z,36.00
2018-08-06T09:26:25.404Z,35.42
2018-08-06T09:27:25.428Z,34.35
2018-08-06T09:29:18.372Z,33.96
2018-08-06T09:30:18.378Z,33.96
2018-08-06T09:32:11.305Z,34.37
2018-08-06T09:33:11.333Z,34.76
2018-08-06T09:35:04.277Z,34.16
2018-08-06T09:36:04.294Z,34.06
2018-08-06T09:37:57.211Z,33.86
2018-08-06T09:38:57.238Z,33.86
2018-08-06T09:40:50.198Z,33.96
2018-08-06T09:41:50.200Z,33.86
2018-08-06T09:43:43.150Z,34.08
2018-08-06T09:44:43.157Z,34.56
2018-08-06T09:46:36.080Z,33.80
2018-08-06T09:47:36.131Z,34.27
2018-08-06T09:49:29.063Z,32.91
2018-08-06T09:50:29.072Z,33.20
2018-08-06T09:52:21.994Z,32.71
2018-08-06T09:53:22.023Z,34.56
2018-08-06T09:55:14.966Z,33.12
2018-08-06T09:56:14.976Z,32.94
2018-08-06T09:58:07.899Z,33.23
2018-08-06T09:59:07.926Z,32.55
2018-08-06T10:01:00.881Z,33.14
2018-08-06T10:02:00.880Z,32.75
2018-08-06T10:03:53.834Z,33.44
2018-08-06T10:04:53.840Z,33.44
2018-08-06T10:06:47.010Z,31.69
2018-08-06T10:07:46.790Z,31.79
2018-08-06T10:09:39.740Z,32.96
2018-08-06T10:10:39.740Z,32.37
2018-08-06T10:12:32.672Z,30.81
2018-08-06T10:13:32.701Z,32.28
2018-08-06T10:15:25.643Z,32.39
2018-08-06T10:16:25.664Z,31.99
2018-08-06T10:18:18.576Z,30.93
2018-08-06T10:19:18.712Z,30.62
2018-08-06T10:21:11.547Z,31.01
2018-08-06T10:22:11.555Z,31.30
2018-08-06T10:24:04.504Z,31.59
2018-08-06T10:25:04.512Z,31.69
2018-08-06T10:26:57.439Z,31.51
2018-08-06T10:27:57.464Z,31.51
2018-08-06T10:29:50.409Z,31.51
2018-08-06T10:30:50.417Z,31.60
2018-08-06T10:32:43.351Z,30.35
2018-08-06T10:33:43.384Z,30.16
2018-08-06T10:35:36.319Z,29.86
2018-08-06T10:36:36.377Z,30.35
2018-08-06T10:38:30.281Z,29.79
2018-08-06T10:39:30.311Z,30.37
2018-08-06T10:41:23.283Z,30.38
2018-08-06T10:42:23.263Z,29.99
2018-08-06T10:44:16.279Z,28.33
2018-08-06T10:45:16.284Z,28.33
2018-08-06T10:47:09.164Z,28.53
2018-08-06T10:48:09.195Z,28.72
2018-08-06T10:50:02.216Z,28.81
2018-08-06T10:51:02.167Z,28.03
2018-08-06T10:52:55.105Z,27.91
2018-08-06T10:53:55.183Z,28.89
2018-08-06T10:55:48.117Z,29.08
2018-08-06T10:56:48.109Z,29.28
2018-08-06T10:58:41.096Z,29.88
2018-08-06T10:59:41.122Z,29.59
2018-08-06T11:01:34.079Z,29.10
2018-08-06T11:02:34.038Z,29.20
2018-08-06T11:04:27.051Z,28.82
2018-08-06T11:05:27.092Z,27.75
2018-08-06T11:07:19.971Z,27.65
2018-08-06T11:08:19.980Z,27.94
2018-08-06T11:10:12.993Z,27.45
2018-08-06T11:11:12.957Z,28.14
2018-08-06T11:13:05.881Z,27.05
2018-08-06T11:14:05.957Z,27.44
2018-08-06T11:15:58.856Z,27.83
2018-08-06T11:16:58.865Z,27.23
2018-08-06T11:18:51.790Z,28.71
2018-08-06T11:19:51.821Z,28.23
2018-08-06T11:21:44.771Z,27.94
2018-08-06T11:22:44.781Z,27.65
2018-08-06T11:24:37.734Z,27.66
2018-08-06T11:25:37.734Z,27.77
2018-08-06T11:27:30.658Z,27.09
2018-08-06T11:28:30.723Z,27.20
2018-08-06T11:30:23.640Z,26.32
2018-08-06T11:31:23.644Z,26.22
2018-08-06T11:33:16.571Z,26.04
2018-08-06T11:34:16.606Z,26.14
2018-08-06T11:36:09.553Z,24.85
2018-08-06T11:37:09.555Z,24.65
2018-08-06T11:39:02.489Z,25.15
2018-08-06T11:40:02.513Z,24.95
2018-08-06T11:41:55.459Z,25.24
2018-08-06T11:42:55.470Z,25.54
2018-08-06T11:44:48.414Z,25.73
2018-08-06T11:45:48.424Z,26.32
2018-08-06T11:47:41.383Z,26.51
2018-08-06T11:48:41.390Z,25.54
2018-08-06T11:50:34.343Z,24.75
2018-08-06T11:51:34.404Z,24.55
2018-08-06T11:53:27.276Z,24.27
2018-08-06T11:54:27.308Z,24.27
2018-08-06T11:56:20.260Z,24.57
2018-08-06T11:57:20.273Z,23.79
2018-08-06T11:59:13.190Z,24.08
2018-08-06T12:00:13.219Z,24.27
2018-08-06T12:02:06.178Z,24.19
2018-08-06T12:03:06.190Z,24.48
2018-08-06T12:04:59.133Z,23.00
2018-08-06T12:05:59.144Z,23.30
2018-08-06T12:07:52.096Z,23.39
2018-08-06T12:08:52.104Z,24.37
2018-08-06T12:10:45.050Z,24.38
2018-08-06T12:11:45.055Z,23.70
2018-08-06T12:13:38.015Z,23.90
2018-08-06T12:14:38.014Z,24.09
2018-08-06T12:16:30.956Z,23.52
2018-08-06T12:17:30.966Z,22.34
2018-08-06T12:19:23.891Z,21.84
2018-08-06T12:20:23.962Z,22.23
2018-08-06T12:22:16.867Z,23.80
2018-08-06T12:23:16.879Z,24.09
2018-08-06T12:25:09.805Z,23.02
2018-08-06T12:26:09.976Z,22.51
2018-08-06T12:28:02.785Z,23.00
2018-08-06T12:29:02.793Z,23.39
2018-08-06T12:30:55.738Z,23.31
2018-08-06T12:31:55.749Z,23.80
2018-08-06T12:33:48.676Z,23.60
2018-08-06T12:34:48.711Z,23.52
2018-08-06T12:36:41.660Z,22.14
2018-08-06T12:37:41.667Z,22.34
2018-08-06T12:39:34.623Z,22.92
2018-08-06T12:40:34.647Z,22.35
2018-08-06T12:42:27.599Z,21.66
2018-08-06T12:43:27.608Z,22.03
2018-08-06T12:45:20.536Z,23.02
2018-08-06T12:46:20.679Z,23.52
2018-08-06T12:48:13.517Z,21.95
2018-08-06T12:49:13.523Z,21.75
2018-08-06T12:51:06.475Z,21.64
2018-08-06T12:52:06.484Z,21.74
2018-08-06T12:53:59.412Z,21.84
2018-08-06T12:54:59.440Z,21.92
2018-08-06T12:56:52.387Z,22.61
2018-08-06T12:57:52.396Z,22.51
2018-08-06T12:59:45.328Z,23.31
2018-08-06T13:00:45.356Z,23.41
2018-08-06T13:02:38.308Z,21.75
2018-08-06T13:03:38.319Z,21.75
2018-08-06T13:05:31.250Z,21.75
2018-08-06T13:06:31.287Z,21.66
2018-08-06T13:08:24.226Z,21.17
2018-08-06T13:09:24.231Z,21.47
2018-08-06T13:11:17.179Z,21.96
2018-08-06T13:12:17.195Z,20.88
2018-08-06T13:14:10.116Z,21.06
2018-08-06T13:15:10.149Z,21.85
2018-08-06T13:17:03.093Z,21.26
2018-08-06T13:18:03.131Z,21.16
2018-08-06T13:19:56.040Z,21.26
2018-08-06T13:20:56.077Z,20.97
2018-08-06T13:22:49.029Z,20.97
2018-08-06T13:23:49.034Z,20.77
2018-08-06T13:25:41.957Z,21.76
2018-08-06T13:26:41.989Z,21.96
2018-08-06T13:28:34.942Z,21.66
2018-08-06T13:29:34.948Z,21.87
2018-08-06T13:31:27.896Z,21.39
2018-08-06T13:32:27.906Z,21.19
2018-08-06T13:34:20.834Z,20.41
2018-08-06T13:35:20.862Z,20.31
2018-08-06T13:37:13.808Z,21.09
2018-08-06T13:38:13.829Z,20.32
2018-08-06T13:40:06.746Z,20.32
2018-08-06T13:41:06.777Z,20.03
2018-08-06T13:42:59.739Z,20.03
2018-08-06T13:43:59.739Z,19.54
2018-08-06T13:45:52.674Z,20.03
2018-08-06T13:46:52.740Z,19.44
2018-08-06T13:48:45.728Z,20.01
2018-08-06T13:49:45.661Z,20.12
2018-08-06T13:51:38.615Z,19.13
2018-08-06T13:52:38.633Z,19.23
2018-08-06T13:54:31.558Z,19.23
2018-08-06T13:55:31.591Z,20.01
2018-08-06T13:57:24.551Z,20.32
2018-08-06T13:58:24.560Z,19.54
2018-08-06T14:00:17.485Z,19.04
2018-08-06T14:01:17.519Z,19.24
2018-08-06T14:03:10.466Z,19.64
2018-08-06T14:04:10.477Z,19.34
2018-08-06T14:06:03.405Z,19.93
2018-08-06T14:07:03.476Z,19.93
2018-08-06T14:08:56.390Z,20.03
2018-08-06T14:09:56.396Z,20.03
2018-08-06T14:11:49.347Z,19.94
2018-08-06T14:12:49.358Z,20.14
2018-08-06T14:14:42.286Z,19.54
2018-08-06T14:15:42.319Z,20.32
2018-08-06T14:17:35.281Z,20.14
2018-08-06T14:18:35.280Z,20.23
2018-08-06T14:20:28.212Z,19.74
2018-08-06T14:21:28.241Z,19.64
2018-08-06T14:23:21.201Z,17.88
2018-08-06T14:24:21.206Z,18.56
2018-08-06T14:26:14.135Z,18.86
2018-08-06T14:27:14.168Z,19.46
2018-08-06T14:29:07.121Z,19.36
2018-08-06T14:30:07.130Z,18.67
2018-08-06T14:32:00.092Z,18.17
2018-08-06T14:33:00.098Z,18.27
2018-08-06T14:34:53.035Z,18.26
2018-08-06T14:35:53.064Z,18.85
2018-08-06T14:37:46.018Z,18.65
2018-08-06T14:38:46.026Z,18.65
2018-08-06T14:40:38.957Z,18.64
2018-08-06T14:41:38.986Z,19.23
2018-08-06T14:43:31.940Z,19.14
2018-08-06T14:44:31.946Z,19.24
2018-08-06T14:46:24.874Z,19.45
2018-08-06T14:47:24.907Z,18.66
2018-08-06T14:49:17.990Z,19.14
2018-08-06T14:50:18.005Z,19.14
2018-08-06T14:52:10.967Z,19.06
2018-08-06T14:53:10.964Z,19.15
2018-08-06T14:55:03.901Z,18.96
2018-08-06T14:56:03.934Z,18.37
2018-08-06T14:57:56.885Z,18.08
2018-08-06T14:58:56.893Z,17.49
2018-08-06T15:00:49.955Z,16.51
2018-08-06T15:01:49.986Z,16.41
2018-08-06T15:03:42.941Z,16.51
2018-08-06T15:04:42.952Z,16.90
2018-08-06T15:06:35.879Z,17.10
2018-08-06T15:07:35.910Z,17.19
2018-08-06T15:09:28.866Z,18.27
2018-08-06T15:10:28.877Z,18.57
2018-08-06T15:12:21.831Z,18.96
2018-08-06T15:13:21.836Z,18.08
2018-08-06T15:15:14.858Z,18.48
2018-08-06T15:16:14.804Z,18.38
2018-08-06T15:18:07.772Z,18.77
2018-08-06T15:19:07.767Z,18.38
2018-08-06T15:21:00.704Z,18.29
2018-08-06T15:22:00.728Z,17.40
2018-08-06T15:23:53.675Z,17.79
2018-08-06T15:24:53.688Z,18.29
2018-08-06T15:26:46.618Z,17.40
2018-08-06T15:27:46.653Z,17.00
2018-08-06T15:29:39.606Z,16.91
2018-08-06T15:30:39.632Z,16.52
2018-08-06T15:32:32.713Z,16.61
2018-08-06T15:33:32.727Z,16.61
2018-08-06T15:35:25.655Z,17.21
2018-08-06T15:36:25.687Z,17.11
2018-08-06T15:38:18.642Z,17.21
2018-08-06T15:39:18.652Z,17.30
2018-08-06T15:41:11.586Z,17.02
2018-08-06T15:42:11.613Z,17.11
2018-08-06T15:44:04.733Z,16.22
2018-08-06T15:45:04.746Z,17.11
2018-08-06T15:46:57.675Z,16.81
2018-08-06T15:47:57.706Z,17.11
2018-08-06T15:49:50.662Z,17.41
2018-08-06T15:50:50.672Z,17.40
2018-08-06T15:52:43.628Z,16.52
2018-08-06T15:53:43.631Z,17.00
2018-08-06T15:55:36.589Z,17.60
2018-08-06T15:56:36.601Z,17.41
2018-08-06T15:58:29.553Z,17.11
2018-08-06T15:59:29.563Z,17.41
2018-08-06T16:01:22.491Z,17.21
2018-08-06T16:02:22.524Z,17.11
2018-08-06T16:04:15.479Z,17.00
2018-08-06T16:05:15.486Z,17.00
2018-08-06T16:07:08.418Z,17.00
2018-08-06T16:08:08.450Z,16.61
2018-08-06T16:10:01.417Z,16.61
2018-08-06T16:11:01.413Z,16.22
2018-08-06T16:12:54.367Z,16.80
2018-08-06T16:13:54.377Z,17.30
2018-08-06T16:15:48.322Z,17.00
2018-08-06T16:16:48.354Z,16.71
2018-08-06T16:18:41.308Z,16.71
2018-08-06T16:19:41.322Z,17.11
2018-08-06T16:21:34.258Z,17.21
2018-08-06T16:22:34.290Z,16.80
2018-08-06T16:24:27.238Z,17.29
2018-08-06T16:25:27.252Z,17.10
2018-08-06T16:27:20.181Z,17.10
2018-08-06T16:28:20.215Z,17.49
2018-08-06T16:30:13.169Z,17.29
2018-08-06T16:31:13.280Z,17.09
2018-08-06T16:33:06.130Z,17.29
2018-08-06T16:34:06.140Z,17.48
2018-08-06T16:35:59.068Z,17.29
2018-08-06T16:36:59.104Z,17.79
2018-08-06T16:38:52.056Z,18.27
2018-08-06T16:39:52.063Z,18.08
2018-08-06T16:41:44.995Z,18.08
2018-08-06T16:42:45.027Z,18.77
2018-08-06T16:44:37.985Z,18.37
2018-08-06T16:45:38.007Z,18.27
2018-08-06T16:47:30.924Z,18.48
2018-08-06T16:48:30.954Z,18.57
2018-08-06T16:50:23.914Z,18.27
2018-08-06T16:51:23.927Z,18.77
2018-08-06T16:53:16.883Z,18.77
2018-08-06T16:54:16.889Z,19.56
2018-08-06T16:56:09.820Z,18.67
2018-08-06T16:57:09.853Z,18.87
2018-08-06T16:59:02.806Z,18.08
2018-08-06T17:00:02.813Z,18.57
2018-08-06T17:01:55.743Z,19.16
2018-08-06T17:02:55.883Z,18.37
2018-08-06T17:04:48.725Z,18.96
2018-08-06T17:05:48.752Z,19.26
2018-08-06T17:07:41.669Z,19.26
2018-08-06T17:08:41.704Z,19.65
2018-08-06T17:10:34.673Z,19.56
2018-08-06T17:11:34.659Z,19.75
2018-08-06T17:13:27.629Z,19.46
2018-08-06T17:14:27.626Z,19.26
2018-08-06T17:16:20.553Z,19.65
2018-08-06T17:17:20.585Z,19.36
2018-08-06T17:19:13.544Z,19.65
2018-08-06T17:20:13.558Z,20.04
2018-08-06T17:22:06.500Z,20.04
2018-08-06T17:23:06.507Z,20.43
2018-08-06T17:24:59.462Z,20.14
2018-08-06T17:25:59.471Z,20.04
2018-08-06T17:27:52.408Z,19.84
2018-08-06T17:28:52.441Z,20.04
2018-08-06T17:30:46.385Z,20.23
2018-08-06T17:31:46.398Z,20.43
2018-08-06T17:33:39.362Z,20.62
2018-08-06T17:34:39.359Z,20.32
2018-08-06T17:36:32.339Z,20.32
2018-08-06T17:37:32.322Z,20.03
2018-08-06T17:39:25.278Z,20.51
2018-08-06T17:40:25.316Z,20.42
2018-08-06T17:42:18.212Z,20.72
2018-08-06T17:43:18.242Z,20.81
2018-08-06T17:45:11.202Z,20.51
2018-08-06T17:46:11.214Z,20.81
2018-08-06T17:48:04.162Z,20.31
2018-08-06T17:49:04.195Z,20.80
2018-08-06T17:50:57.146Z,20.31
2018-08-06T17:51:57.154Z,20.80
2018-08-06T17:53:50.087Z,21.00
2018-08-06T17:54:50.123Z,21.39
2018-08-06T17:56:43.067Z,21.29
2018-08-06T17:57:43.073Z,21.29
2018-08-06T17:59:36.100Z,21.98
2018-08-06T18:00:36.035Z,21.58
2018-08-06T18:02:28.961Z,21.87
2018-08-06T18:03:28.992Z,21.97
2018-08-06T18:05:21.982Z,22.26
2018-08-06T18:06:21.993Z,22.85
2018-08-06T18:08:14.946Z,22.46
2018-08-06T18:09:14.957Z,23.13
2018-08-06T18:11:07.900Z,22.45
2018-08-06T18:12:07.912Z,22.74
2018-08-06T18:14:00.843Z,22.84
2018-08-06T18:15:00.873Z,23.03
2018-08-06T18:16:53.822Z,23.03
2018-08-06T18:17:53.832Z,23.03
2018-08-06T18:19:46.781Z,22.64
2018-08-06T18:20:46.797Z,22.64
2018-08-06T18:22:39.722Z,22.63
2018-08-06T18:23:39.751Z,22.83
2018-08-06T18:25:32.706Z,22.53
2018-08-06T18:26:32.713Z,22.92
2018-08-06T18:28:25.656Z,22.14
2018-08-06T18:29:25.672Z,22.73
2018-08-06T18:31:18.620Z,23.02
2018-08-06T18:32:18.632Z,22.83
2018-08-06T18:34:11.561Z,23.22